Time;durP1;ratioP1;P1;durP2;ratioP2;P2;SDS_P1;SDS_P2;PMS_P1;PMS_P2;Temp;Humidity;BMP_temperature;BMP_pressure;BME280_temperature;BME280_humidity;BME280_pressure;Samples;Min_cycle;Max_cycle;Signal;HPM_P1;HPM_P2
2024/01/04 00:03:59;;;;;;;7.00;3.23;;;;;;;;;;10124124;29;20166;-80
2024/01/04 00:09:00;;;;;;;5.60;2.40;;;;;;;;;;10107235;29;20040;-79
2024/01/04 00:14:02;;;;;;;6.50;2.93;;;;;;;;;;10123550;29;20041;-79
2024/01/04 00:19:03;;;;;;;6.93;3.03;;;;;;;;;;10125404;29;20032;-77
2024/01/04 00:24:05;;;;;;;6.17;3.03;;;;;;;;;;10115474;29;20055;-79
2024/01/04 00:29:05;;;;;;;8.17;3.63;;;;;;;;;;10122163;29;20063;-80
2024/01/04 00:34:06;;;;;;;6.83;2.63;;;;;;;;;;10123829;29;20040;-80
2024/01/04 00:39:08;;;;;;;10.30;4.97;;;;;;;;;;10120879;29;20036;-78
2024/01/04 00:44:09;;;;;;;9.60;3.20;;;;;;;;;;10110527;29;20060;-78
2024/01/04 00:49:10;;;;;;;7.43;3.00;;;;;;;;;;10109258;29;20041;-79
2024/01/04 00:54:12;;;;;;;9.83;4.50;;;;;;;;;;10124285;29;20441;-81
2024/01/04 00:59:13;;;;;;;7.70;3.57;;;;;;;;;;10127428;29;20039;-78
2024/01/04 01:04:14;;;;;;;7.60;3.20;;;;;;;;;;10129465;29;20132;-78
2024/01/04 01:09:15;;;;;;;7.10;3.17;;;;;;;;;;10128578;29;20054;-81
2024/01/04 01:14:16;;;;;;;6.27;2.80;;;;;;;;;;10127261;29;20059;-81
2024/01/04 01:19:17;;;;;;;5.50;2.80;;;;;;;;;;10129637;29;20028;-80
2024/01/04 01:24:19;;;;;;;6.80;3.10;;;;;;;;;;10110305;29;20051;-80
2024/01/04 01:29:20;;;;;;;5.60;2.40;;;;;;;;;;10120385;29;20072;-80
2024/01/04 01:34:21;;;;;;;7.90;3.17;;;;;;;;;;10128201;29;20239;-80
2024/01/04 01:39:22;;;;;;;4.67;2.27;;;;;;;;;;10123396;29;20049;-81
2024/01/04 01:44:23;;;;;;;5.17;2.10;;;;;;;;;;10120485;29;20110;-79
2024/01/04 01:49:31;;;;;;;5.73;2.30;;;;;;;;;;10128008;29;20040;-81
2024/01/04 01:54:32;;;;;;;4.57;2.10;;;;;;;;;;10126618;29;20041;-79
2024/01/04 01:59:33;;;;;;;4.60;2.00;;;;;;;;;;10127662;29;20036;-79
2024/01/04 02:04:34;;;;;;;4.40;2.00;;;;;;;;;;10111930;29;20040;-81
2024/01/04 02:09:42;;;;;;;4.47;1.80;;;;;;;;;;10125221;29;20036;-79
2024/01/04 02:14:43;;;;;;;6.40;2.30;;;;;;;;;;10117175;29;20055;-79
2024/01/04 02:19:45;;;;;;;3.33;1.47;;;;;;;;;;10127245;29;20033;-80
2024/01/04 02:24:46;;;;;;;5.87;2.23;;;;;;;;;;10101583;29;20043;-79
2024/01/04 02:29:47;;;;;;;5.83;2.03;;;;;;;;;;10125876;29;20406;-81
2024/01/04 02:34:48;;;;;;;4.60;2.17;;;;;;;;;;10126629;29;20036;-78
2024/01/04 02:39:49;;;;;;;5.43;2.37;;;;;;;;;;10108718;29;20052;-79
2024/01/04 02:44:50;;;;;;;3.47;1.80;;;;;;;;;;10116868;29;20496;-80
2024/01/04 02:49:51;;;;;;;5.77;1.90;;;;;;;;;;10126070;29;20035;-80
2024/01/04 02:54:52;;;;;;;4.30;2.17;;;;;;;;;;10119919;29;20044;-79
2024/01/04 02:59:53;;;;;;;3.57;2.20;;;;;;;;;;10125219;29;20054;-80
2024/01/04 03:04:54;;;;;;;3.70;1.73;;;;;;;;;;10123076;29;21462;-81
2024/01/04 03:09:56;;;;;;;4.50;2.07;;;;;;;;;;10124405;29;20028;-80
2024/01/04 03:14:58;;;;;;;5.47;2.37;;;;;;;;;;10106265;29;20052;-79
2024/01/04 03:20:00;;;;;;;6.23;3.10;;;;;;;;;;10125020;29;20088;-83
2024/01/04 03:25:01;;;;;;;8.73;3.43;;;;;;;;;;10125368;29;20041;-80
2024/01/04 03:30:02;;;;;;;5.67;3.77;;;;;;;;;;10124906;29;20052;-81
2024/01/04 03:35:06;;;;;;;9.90;5.07;;;;;;;;;;10111177;29;20064;-80
2024/01/04 03:40:08;;;;;;;5.30;3.07;;;;;;;;;;10124607;29;20128;-79
2024/01/04 03:45:10;;;;;;;5.50;2.40;;;;;;;;;;10125387;29;20453;-80
2024/01/04 03:50:11;;;;;;;6.23;2.87;;;;;;;;;;10106812;29;20044;-80
2024/01/04 03:55:15;;;;;;;5.47;3.00;;;;;;;;;;10120238;29;20521;-81
2024/01/04 04:00:17;;;;;;;5.40;3.10;;;;;;;;;;10122691;29;20119;-80
2024/01/04 04:05:18;;;;;;;5.47;2.50;;;;;;;;;;10123461;29;20048;-80
2024/01/04 04:10:19;;;;;;;6.90;2.40;;;;;;;;;;10123765;29;20513;-80
2024/01/04 04:15:20;;;;;;;6.67;3.43;;;;;;;;;;10131714;29;20040;-82
2024/01/04 04:20:21;;;;;;;9.23;6.10;;;;;;;;;;10129263;29;20043;-80
2024/01/04 04:25:22;;;;;;;10.17;6.10;;;;;;;;;;10130356;29;20052;-81
2024/01/04 04:30:23;;;;;;;10.63;6.10;;;;;;;;;;10124961;29;20058;-79
2024/01/04 04:35:24;;;;;;;12.50;7.30;;;;;;;;;;10130876;29;20053;-81
2024/01/04 04:40:25;;;;;;;8.80;5.60;;;;;;;;;;10105465;29;20070;-81
2024/01/04 04:45:26;;;;;;;9.37;6.07;;;;;;;;;;10128827;29;20032;-79
2024/01/04 04:50:27;;;;;;;12.50;6.90;;;;;;;;;;10130362;29;20437;-80
2024/01/04 04:55:28;;;;;;;9.50;5.33;;;;;;;;;;10129002;29;20136;-82
2024/01/04 05:00:29;;;;;;;9.50;4.20;;;;;;;;;;10129067;29;20359;-80
2024/01/04 05:05:31;;;;;;;7.97;4.20;;;;;;;;;;10124487;29;20097;-80
2024/01/04 05:10:38;;;;;;;8.23;4.90;;;;;;;;;;10127604;29;20378;-80
2024/01/04 05:15:40;;;;;;;8.93;4.13;;;;;;;;;;10129735;29;20048;-81
2024/01/04 05:20:41;;;;;;;8.47;3.97;;;;;;;;;;10108834;29;20036;-81
2024/01/04 05:25:42;;;;;;;7.57;3.37;;;;;;;;;;10125455;29;20041;-80
2024/01/04 05:30:43;;;;;;;7.67;3.07;;;;;;;;;;10113868;29;20064;-80
2024/01/04 05:35:45;;;;;;;5.93;2.57;;;;;;;;;;10129162;29;20092;-80
2024/01/04 05:40:46;;;;;;;6.70;2.60;;;;;;;;;;10117875;29;20029;-81
2024/01/04 05:45:47;;;;;;;3.27;1.87;;;;;;;;;;10128617;29;20033;-81
2024/01/04 05:50:49;;;;;;;6.77;2.83;;;;;;;;;;10128111;29;20539;-82
2024/01/04 05:55:50;;;;;;;7.47;3.57;;;;;;;;;;10127107;29;20477;-81
2024/01/04 06:00:51;;;;;;;3.63;2.10;;;;;;;;;;10128464;29;20038;-83
2024/01/04 06:05:52;;;;;;;5.93;3.30;;;;;;;;;;10128434;29;20120;-82
2024/01/04 06:10:53;;;;;;;14.23;4.63;;;;;;;;;;10125427;29;20040;-81
2024/01/04 06:15:54;;;;;;;9.37;3.77;;;;;;;;;;10109831;29;20408;-81
2024/01/04 06:20:55;;;;;;;6.60;2.73;;;;;;;;;;10125629;29;20092;-81
2024/01/04 06:25:56;;;;;;;11.13;4.70;;;;;;;;;;10126770;29;20110;-83
2024/01/04 06:30:57;;;;;;;9.20;4.80;;;;;;;;;;10125746;29;20505;-81
2024/01/04 06:35:58;;;;;;;9.47;5.67;;;;;;;;;;10125416;29;20040;-81
2024/01/04 06:41:00;;;;;;;11.70;6.40;;;;;;;;;;10127438;29;20044;-80
2024/01/04 06:46:10;;;;;;;10.20;5.73;;;;;;;;;;10134396;29;20096;-80
2024/01/04 06:51:12;;;;;;;11.17;7.07;;;;;;;;;;10125703;29;20043;-80
2024/01/04 06:56:18;;;;;;;14.17;7.03;;;;;;;;;;10125192;29;20139;-82
2024/01/04 07:01:19;;;;;;;11.53;6.03;;;;;;;;;;10121529;29;20041;-80
2024/01/04 07:06:20;;;;;;;11.43;6.33;;;;;;;;;;10132114;29;20369;-82
2024/01/04 07:11:22;;;;;;;15.63;8.73;;;;;;;;;;10120881;29;20044;-80
2024/01/04 07:16:23;;;;;;;17.23;8.90;;;;;;;;;;10140333;29;20047;-80
2024/01/04 07:21:24;;;;;;;18.40;10.10;;;;;;;;;;10137598;29;20503;-80
2024/01/04 07:26:26;;;;;;;16.40;9.43;;;;;;;;;;10107848;29;20045;-79
2024/01/04 07:31:27;;;;;;;17.53;10.63;;;;;;;;;;10091864;29;20076;-80
2024/01/04 07:36:28;;;;;;;28.50;15.17;;;;;;;;;;10121347;29;20147;-82
2024/01/04 07:41:29;;;;;;;33.93;19.73;;;;;;;;;;10101044;29;20029;-81
2024/01/04 07:46:36;;;;;;;36.17;23.23;;;;;;;;;;10116288;29;20043;-80
2024/01/04 07:51:38;;;;;;;43.10;24.57;;;;;;;;;;10127502;29;20044;-80
2024/01/04 07:56:39;;;;;;;43.30;26.07;;;;;;;;;;10124310;29;20033;-81
2024/01/04 08:01:41;;;;;;;37.60;22.60;;;;;;;;;;10111600;29;20492;-79
2024/01/04 08:06:50;;;;;;;34.07;20.03;;;;;;;;;;10125751;29;20033;-82
2024/01/04 08:11:51;;;;;;;31.80;19.70;;;;;;;;;;10132252;29;20117;-81
2024/01/04 08:16:52;;;;;;;27.17;15.23;;;;;;;;;;10115591;29;20133;-81
2024/01/04 08:21:53;;;;;;;23.47;13.47;;;;;;;;;;10132564;29;20557;-79
2024/01/04 08:26:55;;;;;;;22.40;12.83;;;;;;;;;;10108766;29;20374;-80
2024/01/04 08:31:56;;;;;;;24.77;14.23;;;;;;;;;;10123420;29;20053;-80
2024/01/04 08:36:57;;;;;;;29.73;18.30;;;;;;;;;;10131760;29;20033;-80
2024/01/04 08:41:58;;;;;;;26.23;17.50;;;;;;;;;;10136517;29;20067;-79
2024/01/04 08:46:59;;;;;;;25.30;16.43;;;;;;;;;;10152019;29;20040;-80
2024/01/04 08:52:01;;;;;;;28.20;17.47;;;;;;;;;;10130951;29;20112;-80
2024/01/04 08:57:03;;;;;;;28.33;16.53;;;;;;;;;;10126704;29;20033;-81
2024/01/04 09:02:05;;;;;;;21.93;13.60;;;;;;;;;;10121478;29;20058;-83
2024/01/04 09:07:08;;;;;;;21.77;13.67;;;;;;;;;;10131486;29;20036;-80
2024/01/04 09:12:09;;;;;;;23.20;13.43;;;;;;;;;;10156006;29;20144;-81
2024/01/04 09:17:10;;;;;;;18.47;11.10;;;;;;;;;;10149590;29;20055;-81
2024/01/04 09:22:11;;;;;;;16.90;9.83;;;;;;;;;;10129727;29;20032;-81
2024/01/04 09:27:12;;;;;;;15.37;8.20;;;;;;;;;;10134789;29;20164;-83
2024/01/04 09:32:14;;;;;;;12.83;7.93;;;;;;;;;;10133830;29;20052;-81
2024/01/04 09:37:15;;;;;;;18.50;8.70;;;;;;;;;;10108237;29;20056;-80
2024/01/04 09:42:17;;;;;;;14.40;7.67;;;;;;;;;;10128707;23;20033;-82
2024/01/04 09:47:23;;;;;;;17.63;10.10;;;;;;;;;;10121553;29;20043;-81
2024/01/04 09:52:26;;;;;;;;;;;;;;;;;;10116620;29;20040;-80
2024/01/04 09:57:27;;;;;;;13.47;7.33;;;;;;;;;;10094340;29;19915;-81
2024/01/04 10:02:28;;;;;;;10.97;6.17;;;;;;;;;;10088135;29;20477;-80
2024/01/04 10:07:32;;;;;;;7.40;3.50;;;;;;;;;;10089139;29;20037;-81
2024/01/04 10:12:33;;;;;;;8.63;4.30;;;;;;;;;;10088485;29;20076;-80
2024/01/04 10:17:35;;;;;;;6.37;3.63;;;;;;;;;;10088044;29;20037;-81
2024/01/04 10:22:36;;;;;;;14.40;6.83;;;;;;;;;;10079795;29;20622;-79
2024/01/04 10:27:55;;;;;;;16.60;8.53;;;;;;;;;;10087317;29;20486;-82
2024/01/04 10:32:56;;;;;;;12.80;7.20;;;;;;;;;;10087725;29;20045;-82
2024/01/04 10:38:00;;;;;;;16.87;8.33;;;;;;;;;;10068679;29;20371;-82
2024/01/04 10:43:08;;;;;;;13.63;7.60;;;;;;;;;;10087277;29;20052;-81
2024/01/04 10:48:12;;;;;;;14.93;7.70;;;;;;;;;;10088232;29;20076;-81
2024/01/04 10:53:14;;;;;;;18.63;9.10;;;;;;;;;;10089299;29;20072;-81
2024/01/04 10:58:15;;;;;;;22.13;11.30;;;;;;;;;;10087002;29;20379;-82
2024/01/04 11:03:16;;;;;;;23.73;13.73;;;;;;;;;;10086706;29;20044;-80
2024/01/04 11:08:17;;;;;;;24.90;12.57;;;;;;;;;;10087823;29;20029;-81
2024/01/04 11:13:25;;;;;;;25.03;13.10;;;;;;;;;;10086611;29;20120;-80
2024/01/04 11:18:33;;;;;;;19.60;9.63;;;;;;;;;;10087093;29;20049;-82
2024/01/04 11:23:40;;;;;;;22.43;11.17;;;;;;;;;;10082369;29;20116;-82
2024/01/04 11:28:41;;;;;;;26.03;12.27;;;;;;;;;;10084900;29;20100;-81
2024/01/04 11:33:42;;;;;;;17.70;8.30;;;;;;;;;;10086170;29;20048;-81
2024/01/04 11:38:45;;;;;;;11.97;6.03;;;;;;;;;;10069089;29;20136;-80
2024/01/04 11:43:54;;;;;;;10.60;5.00;;;;;;;;;;10107156;29;20158;-81
2024/01/04 11:48:57;;;;;;;9.23;3.97;;;;;;;;;;10110851;29;20037;-82
2024/01/04 11:54:06;;;;;;;6.37;3.67;;;;;;;;;;10100676;29;20275;-82
2024/01/04 11:59:12;;;;;;;9.77;5.43;;;;;;;;;;10105954;29;20033;-82
2024/01/04 12:04:15;;;;;;;9.10;5.10;;;;;;;;;;10113008;29;20029;-84
2024/01/04 12:09:19;;;;;;;7.60;4.23;;;;;;;;;;10097694;29;20033;-81
2024/01/04 12:14:22;;;;;;;12.50;6.13;;;;;;;;;;10097169;29;20521;-81
2024/01/04 12:19:24;;;;;;;14.10;7.37;;;;;;;;;;10111135;29;20128;-81
2024/01/04 12:24:26;;;;;;;16.07;8.90;;;;;;;;;;10111006;29;20041;-80
2024/01/04 12:29:28;;;;;;;16.77;7.83;;;;;;;;;;10111577;29;20032;-81
2024/01/04 12:34:30;;;;;;;14.40;6.23;;;;;;;;;;10113082;29;20040;-86
2024/01/04 12:39:31;;;;;;;18.30;8.60;;;;;;;;;;10115309;29;20044;-80
2024/01/04 12:44:33;;;;;;;17.43;7.87;;;;;;;;;;10112754;29;20057;-80
2024/01/04 12:49:35;;;;;;;14.87;7.00;;;;;;;;;;10097878;29;20043;-81
2024/01/04 12:54:36;;;;;;;24.20;11.73;;;;;;;;;;10074345;29;20053;-80
2024/01/04 12:59:37;;;;;;;21.80;7.67;;;;;;;;;;10091344;29;20037;-82
2024/01/04 13:04:38;;;;;;;25.13;11.00;;;;;;;;;;10099565;29;20036;-82
2024/01/04 13:09:39;;;;;;;20.03;8.73;;;;;;;;;;10100488;29;20048;-80
2024/01/04 13:14:39;;;;;;;19.07;8.53;;;;;;;;;;10082777;29;20053;-84
2024/01/04 13:19:41;;;;;;;18.53;8.97;;;;;;;;;;10064042;29;20422;-80
2024/01/04 13:24:42;;;;;;;15.87;7.57;;;;;;;;;;10084591;29;20044;-80
2024/01/04 13:29:43;;;;;;;20.90;9.90;;;;;;;;;;10087249;29;20033;-80
2024/01/04 13:34:44;;;;;;;14.27;8.23;;;;;;;;;;10097462;29;20390;-80
2024/01/04 13:39:46;;;;;;;13.40;8.63;;;;;;;;;;10094341;29;20486;-79
2024/01/04 13:44:47;;;;;;;21.57;11.40;;;;;;;;;;10099163;29;20112;-83
2024/01/04 13:49:48;;;;;;;21.17;12.03;;;;;;;;;;10107534;29;20111;-81
2024/01/04 13:54:49;;;;;;;21.30;11.53;;;;;;;;;;10110232;29;20724;-80
2024/01/04 13:59:50;;;;;;;20.73;9.67;;;;;;;;;;10100679;29;20041;-80
2024/01/04 14:04:51;;;;;;;19.17;10.33;;;;;;;;;;10115251;29;20052;-81
2024/01/04 14:09:52;;;;;;;20.73;10.33;;;;;;;;;;10117740;29;20366;-81
2024/01/04 14:14:53;;;;;;;19.80;10.87;;;;;;;;;;10098822;29;20041;-82
2024/01/04 14:19:54;;;;;;;19.20;10.33;;;;;;;;;;10112982;29;20488;-80
2024/01/04 14:24:56;;;;;;;19.07;11.17;;;;;;;;;;10092928;29;20036;-81
2024/01/04 14:29:57;;;;;;;23.30;13.43;;;;;;;;;;10086239;29;20383;-82
2024/01/04 14:35:05;;;;;;;21.43;13.13;;;;;;;;;;10086451;29;20037;-83
2024/01/04 14:40:16;;;;;;;25.63;15.10;;;;;;;;;;10109016;29;20075;-81
2024/01/04 14:45:17;;;;;;;29.47;16.57;;;;;;;;;;10085154;29;20493;-82
2024/01/04 14:50:19;;;;;;;38.43;21.53;;;;;;;;;;10099098;29;20029;-81
2024/01/04 14:55:25;;;;;;;34.67;19.80;;;;;;;;;;10092966;29;20634;-80
2024/01/04 15:00:26;;;;;;;;;;;;;;;;;;10109916;29;20089;-81
2024/01/04 15:05:27;;;;;;;47.07;26.83;;;;;;;;;;10091884;29;20672;-82
2024/01/04 15:10:28;;;;;;;30.10;17.27;;;;;;;;;;10101119;29;20327;-81
2024/01/04 15:15:30;;;;;;;30.80;16.80;;;;;;;;;;10090288;29;20053;-83
2024/01/04 15:20:31;;;;;;;35.73;20.63;;;;;;;;;;10087930;29;20044;-80
2024/01/04 15:25:33;;;;;;;40.57;22.87;;;;;;;;;;10080651;29;20515;-79
2024/01/04 15:30:34;;;;;;;51.57;29.30;;;;;;;;;;10070166;29;20061;-80
2024/01/04 15:35:35;;;;;;;30.37;14.80;;;;;;;;;;10073831;29;20064;-82
2024/01/04 15:40:37;;;;;;;51.03;22.43;;;;;;;;;;10065213;29;20064;-80
2024/01/04 15:45:38;;;;;;;45.37;20.73;;;;;;;;;;10081688;29;20060;-80
2024/01/04 15:50:45;;;;;;;50.10;27.13;;;;;;;;;;10079243;29;20140;-79
2024/01/04 15:55:46;;;;;;;50.20;23.60;;;;;;;;;;10068419;29;20053;-80
2024/01/04 16:00:47;;;;;;;48.20;20.90;;;;;;;;;;10070478;29;20025;-79
2024/01/04 16:05:49;;;;;;;22.40;12.13;;;;;;;;;;10079316;29;20036;-81
2024/01/04 16:10:49;;;;;;;22.27;11.10;;;;;;;;;;10082813;29;20039;-80
2024/01/04 16:15:50;;;;;;;22.17;11.50;;;;;;;;;;10085470;29;20045;-81
2024/01/04 16:20:51;;;;;;;23.40;12.27;;;;;;;;;;10102542;23;20074;-80
2024/01/04 16:25:59;;;;;;;27.93;14.10;;;;;;;;;;10082165;29;20033;-80
2024/01/04 16:31:00;;;;;;;19.03;9.67;;;;;;;;;;10074874;29;20583;-79
2024/01/04 16:36:06;;;;;;;29.60;12.77;;;;;;;;;;10065796;29;20050;-80
2024/01/04 16:41:10;;;;;;;24.58;10.52;;;;;;;;;;10060146;29;20041;-80
2024/01/04 16:46:12;;;;;;;31.77;14.03;;;;;;;;;;10063241;29;20033;-79
2024/01/04 16:51:13;;;;;;;24.43;10.37;;;;;;;;;;10061605;29;20040;-79
2024/01/04 16:56:14;;;;;;;35.33;14.20;;;;;;;;;;10077457;29;20148;-79
2024/01/04 17:01:22;;;;;;;37.33;14.67;;;;;;;;;;10060490;29;20034;-80
2024/01/04 17:06:24;;;;;;;30.17;14.90;;;;;;;;;;10056279;29;20116;-78
2024/01/04 17:11:25;;;;;;;26.60;11.27;;;;;;;;;;10058302;29;20037;-80
2024/01/04 17:16:26;;;;;;;14.50;7.03;;;;;;;;;;10067814;29;20052;-80
2024/01/04 17:21:28;;;;;;;18.10;8.23;;;;;;;;;;10040477;29;20146;-80
2024/01/04 17:26:29;;;;;;;26.03;11.80;;;;;;;;;;10031934;29;20418;-80
2024/01/04 17:31:30;;;;;;;23.73;12.07;;;;;;;;;;10042594;29;20086;-80
2024/01/04 17:36:31;;;;;;;15.37;6.90;;;;;;;;;;10014550;29;20110;-81
2024/01/04 17:41:32;;;;;;;5.67;3.83;;;;;;;;;;10018311;29;20042;-80
2024/01/04 17:46:33;;;;;;;6.00;2.63;;;;;;;;;;10032785;29;20037;-82
2024/01/04 17:51:34;;;;;;;5.83;3.63;;;;;;;;;;9998515;29;20042;-79
2024/01/04 17:56:35;;;;;;;6.13;3.40;;;;;;;;;;10024539;29;20098;-78
2024/01/04 18:01:36;;;;;;;5.63;2.80;;;;;;;;;;10022730;29;20550;-82
2024/01/04 18:06:38;;;;;;;8.37;5.27;;;;;;;;;;10028388;29;20038;-81
2024/01/04 18:11:39;;;;;;;6.43;2.97;;;;;;;;;;10026839;29;20584;-80
2024/01/04 18:16:41;;;;;;;4.07;2.13;;;;;;;;;;10027542;29;20037;-78
2024/01/04 18:21:42;;;;;;;4.73;2.50;;;;;;;;;;10005035;29;20058;-81
2024/01/04 18:26:43;;;;;;;4.87;2.80;;;;;;;;;;10017277;29;20046;-80
2024/01/04 18:31:44;;;;;;;3.93;2.80;;;;;;;;;;10014218;29;20084;-80
2024/01/04 18:36:45;;;;;;;3.57;2.40;;;;;;;;;;10013586;29;20038;-79
2024/01/04 18:41:46;;;;;;;7.70;3.23;;;;;;;;;;10014633;29;20509;-78
2024/01/04 18:46:47;;;;;;;7.20;3.50;;;;;;;;;;10026719;29;20470;-80
2024/01/04 18:51:49;;;;;;;9.57;4.83;;;;;;;;;;10011632;29;20040;-79
2024/01/04 18:56:50;;;;;;;11.73;4.83;;;;;;;;;;10011676;29;20510;-81
2024/01/04 19:01:51;;;;;;;11.07;4.83;;;;;;;;;;10018811;29;20084;-79
2024/01/04 19:06:52;;;;;;;10.53;4.80;;;;;;;;;;10017918;29;20062;-81
2024/01/04 19:11:53;;;;;;;8.13;3.40;;;;;;;;;;10015900;29;20045;-79
2024/01/04 19:16:54;;;;;;;26.33;9.97;;;;;;;;;;10020020;29;20045;-81
2024/01/04 19:21:57;;;;;;;16.70;6.90;;;;;;;;;;10023348;29;20069;-78
2024/01/04 19:26:59;;;;;;;18.27;6.93;;;;;;;;;;10028917;29;20149;-81
2024/01/04 19:32:00;;;;;;;8.63;3.97;;;;;;;;;;10023751;29;20046;-79
2024/01/04 19:37:01;;;;;;;12.60;5.73;;;;;;;;;;10024060;29;20046;-78
2024/01/04 19:42:02;;;;;;;8.73;4.37;;;;;;;;;;10025851;29;20476;-79
2024/01/04 19:47:03;;;;;;;7.77;3.10;;;;;;;;;;10029381;29;20120;-78
2024/01/04 19:52:05;;;;;;;4.87;2.40;;;;;;;;;;10021529;29;20795;-80
2024/01/04 19:57:06;;;;;;;5.20;3.00;;;;;;;;;;10025615;29;20128;-79
2024/01/04 20:02:13;;;;;;;6.70;3.00;;;;;;;;;;10026931;29;20029;-79
2024/01/04 20:07:17;;;;;;;5.70;2.87;;;;;;;;;;10033624;29;20037;-81
2024/01/04 20:12:25;;;;;;;6.33;2.73;;;;;;;;;;10023239;29;20034;-79
2024/01/04 20:17:26;;;;;;;8.27;3.93;;;;;;;;;;10023118;29;20079;-80
2024/01/04 20:22:27;;;;;;;3.67;2.37;;;;;;;;;;10020359;29;20058;-78
2024/01/04 20:27:29;;;;;;;6.97;2.90;;;;;;;;;;10023712;29;20735;-78
2024/01/04 20:32:30;;;;;;;12.30;4.90;;;;;;;;;;10024219;29;20133;-78
2024/01/04 20:37:31;;;;;;;10.53;5.10;;;;;;;;;;10028078;29;20038;-79
2024/01/04 20:42:39;;;;;;;15.20;6.50;;;;;;;;;;10025529;29;20041;-79
2024/01/04 20:47:40;;;;;;;4.60;3.27;;;;;;;;;;10017793;29;20129;-79
2024/01/04 20:52:41;;;;;;;10.43;5.07;;;;;;;;;;10030240;29;20053;-80
2024/01/04 20:57:42;;;;;;;7.43;3.50;;;;;;;;;;10026649;29;20079;-80
2024/01/04 21:02:43;;;;;;;10.03;4.00;;;;;;;;;;10032887;29;20040;-79
2024/01/04 21:07:44;;;;;;;10.50;4.17;;;;;;;;;;10020790;29;20034;-80
2024/01/04 21:12:45;;;;;;;11.27;4.00;;;;;;;;;;10015940;29;20403;-78
2024/01/04 21:17:46;;;;;;;14.10;5.70;;;;;;;;;;10024587;29;20033;-79
2024/01/04 21:22:47;;;;;;;16.87;6.77;;;;;;;;;;10036127;29;20140;-79
2024/01/04 21:27:48;;;;;;;13.73;5.47;;;;;;;;;;10027107;29;20037;-79
2024/01/04 21:32:49;;;;;;;18.37;7.63;;;;;;;;;;10021207;29;20088;-79
2024/01/04 21:37:50;;;;;;;19.50;7.60;;;;;;;;;;10023271;29;20050;-78
2024/01/04 21:42:51;;;;;;;19.37;6.47;;;;;;;;;;10030859;29;20045;-79
2024/01/04 21:47:59;;;;;;;16.00;6.50;;;;;;;;;;10032401;29;20044;-79
2024/01/04 21:53:00;;;;;;;10.33;4.47;;;;;;;;;;10016274;29;20037;-79
2024/01/04 21:58:01;;;;;;;6.87;2.70;;;;;;;;;;10030998;29;20386;-81
2024/01/04 22:03:02;;;;;;;7.27;3.43;;;;;;;;;;10016897;29;20118;-79
2024/01/04 22:08:03;;;;;;;5.13;2.70;;;;;;;;;;10016366;29;20133;-78
2024/01/04 22:13:04;;;;;;;3.03;1.43;;;;;;;;;;10012978;29;20045;-80
2024/01/04 22:18:06;;;;;;;2.07;1.30;;;;;;;;;;10024946;29;20042;-78
2024/01/04 22:23:13;;;;;;;6.70;2.57;;;;;;;;;;10013562;29;20076;-79
2024/01/04 22:28:14;;;;;;;8.00;3.27;;;;;;;;;;10013338;29;20033;-80
2024/01/04 22:33:15;;;;;;;5.83;2.23;;;;;;;;;;10013024;29;20083;-78
2024/01/04 22:38:16;;;;;;;4.93;1.80;;;;;;;;;;10011406;29;20026;-79
2024/01/04 22:43:17;;;;;;;3.63;2.07;;;;;;;;;;10012376;29;20065;-78
2024/01/04 22:48:19;;;;;;;8.47;3.67;;;;;;;;;;10013116;29;20034;-79
2024/01/04 22:53:20;;;;;;;4.53;2.10;;;;;;;;;;10015716;29;20044;-79
2024/01/04 22:58:21;;;;;;;6.47;2.80;;;;;;;;;;10013826;29;20041;-79
2024/01/04 23:03:22;;;;;;;6.97;2.70;;;;;;;;;;10014321;29;20049;-79
2024/01/04 23:08:23;;;;;;;3.87;1.77;;;;;;;;;;10015573;29;20247;-79
2024/01/04 23:13:24;;;;;;;5.77;2.07;;;;;;;;;;10007633;29;20066;-80
2024/01/04 23:18:25;;;;;;;2.83;1.47;;;;;;;;;;10010530;29;20095;-80
2024/01/04 23:23:26;;;;;;;3.03;1.43;;;;;;;;;;10028757;29;20069;-78
2024/01/04 23:28:27;;;;;;;2.87;1.43;;;;;;;;;;10011323;29;20059;-78
2024/01/04 23:33:28;;;;;;;3.23;1.47;;;;;;;;;;10015692;29;20075;-78
2024/01/04 23:38:29;;;;;;;3.90;1.57;;;;;;;;;;10011877;29;20098;-80
2024/01/04 23:43:30;;;;;;;4.17;1.63;;;;;;;;;;10009699;29;20068;-78
2024/01/04 23:48:31;;;;;;;6.77;2.70;;;;;;;;;;10017422;29;20048;-79
2024/01/04 23:53:32;;;;;;;8.50;2.83;;;;;;;;;;10005497;29;20045;-78
2024/01/04 23:58:33;;;;;;;2.07;1.50;;;;;;;;;;10009852;29;20049;-79
